Time;durP1;ratioP1;P1;durP2;ratioP2;P2;SDS_P1;SDS_P2;PMS_P1;PMS_P2;Temp;Humidity;BMP_temperature;BMP_pressure;BME280_temperature;BME280_humidity;BME280_pressure;Samples;Min_cycle;Max_cycle;Signal;HPM_P1;HPM_P2
2022/03/19 00:00:58;;;;;;;9.87;4.33;;;;;;;6.83;79.51;104165.72;5060912;28;20266;-53
2022/03/19 00:03:25;;;;;;;9.60;4.93;;;;;;;6.75;79.94;104159.97;5062746;28;20257;-51
2022/03/19 00:05:51;;;;;;;12.97;4.00;;;;;;;6.75;79.05;104161.69;5068297;28;20227;-52
2022/03/19 00:08:18;;;;;;;5.87;3.60;;;;;;;6.81;79.50;104160.41;5065509;28;20277;-53
2022/03/19 00:10:44;;;;;;;7.40;4.13;;;;;;;6.74;80.58;104162.47;5070017;28;20289;-52
2022/03/19 00:13:12;;;;;;;12.33;6.50;;;;;;;6.55;79.31;104162.88;5067543;28;20262;-52
2022/03/19 00:15:38;;;;;;;12.10;4.57;;;;;;;6.52;79.22;104163.56;5069220;28;20267;-54
2022/03/19 00:18:05;;;;;;;13.93;4.90;;;;;;;6.54;78.88;104161.09;5060771;28;20236;-52
2022/03/19 00:20:32;;;;;;;9.77;4.00;;;;;;;6.57;78.23;104157.00;5065029;28;20626;-52
2022/03/19 00:22:59;;;;;;;6.27;3.20;;;;;;;6.77;81.49;104160.06;5058397;28;20267;-52
2022/03/19 00:25:25;;;;;;;8.30;4.13;;;;;;;6.55;78.44;104161.19;5067227;28;20258;-52
2022/03/19 00:27:52;;;;;;;10.10;3.93;;;;;;;6.56;78.85;104160.38;5057906;28;20247;-52
2022/03/19 00:30:20;;;;;;;11.17;4.87;;;;;;;6.60;78.20;104161.50;5062885;28;20234;-53
2022/03/19 00:32:46;;;;;;;9.77;3.93;;;;;;;6.42;78.18;104162.03;5049465;28;20236;-52
2022/03/19 00:35:13;;;;;;;5.27;3.93;;;;;;;6.52;79.58;104168.78;5052490;28;20231;-53
2022/03/19 00:37:44;;;;;;;6.73;4.10;;;;;;;6.48;79.00;104172.00;5058539;28;20253;-52
2022/03/19 00:40:12;;;;;;;10.30;4.27;;;;;;;6.50;79.66;104166.91;5058392;28;20242;-51
2022/03/19 00:42:38;;;;;;;15.47;4.60;;;;;;;6.36;79.13;104164.19;5061917;28;20231;-53
2022/03/19 00:45:05;;;;;;;7.53;3.73;;;;;;;6.38;80.44;104166.91;5064783;28;20295;-52
2022/03/19 00:47:33;;;;;;;4.90;3.50;;;;;;;6.31;79.82;104162.06;5059191;28;20644;-52
2022/03/19 00:49:59;;;;;;;15.00;5.50;;;;;;;6.33;80.45;104161.38;5059836;28;20728;-52
2022/03/19 00:52:26;;;;;;;5.73;3.73;;;;;;;6.45;81.73;104158.72;5064687;28;20266;-51
2022/03/19 00:54:52;;;;;;;8.80;4.13;;;;;;;6.45;80.58;104161.31;5065677;28;20747;-51
2022/03/19 00:57:18;;;;;;;4.97;4.33;;;;;;;6.57;81.38;104162.22;5064480;28;20328;-52
2022/03/19 00:59:45;;;;;;;7.23;3.47;;;;;;;6.40;79.63;104162.72;5068827;28;20280;-52
2022/03/19 01:02:11;;;;;;;9.40;4.37;;;;;;;6.29;79.63;104158.44;5064991;28;20298;-52
2022/03/19 01:04:39;;;;;;;10.00;4.07;;;;;;;6.20;80.58;104151.75;5065600;28;20590;-53
2022/03/19 01:07:05;;;;;;;7.97;4.03;;;;;;;6.16;80.33;104157.53;5066410;28;20227;-52
2022/03/19 01:09:32;;;;;;;8.20;4.30;;;;;;;6.30;81.31;104149.81;5063907;28;20308;-51
2022/03/19 01:11:58;;;;;;;5.97;3.70;;;;;;;6.42;81.93;104156.81;5061432;28;20348;-51
2022/03/19 01:14:24;;;;;;;5.70;3.53;;;;;;;6.49;81.96;104157.22;5063492;28;20235;-52
2022/03/19 01:16:51;;;;;;;10.80;4.50;;;;;;;6.35;79.64;104148.41;5066463;28;20235;-53
2022/03/19 01:19:52;;;;;;;6.47;4.13;;;;;;;6.18;79.22;104142.91;5064818;28;20255;-52
2022/03/19 01:22:05;;;;;;;12.60;3.87;;;;;;;6.08;79.59;104153.50;5059732;28;20740;-53
2022/03/19 01:24:32;;;;;;;10.20;3.60;;;;;;;6.05;79.83;104150.66;5065696;28;20263;-52
2022/03/19 01:26:58;;;;;;;7.03;3.97;;;;;;;6.04;79.74;104151.47;5055796;28;20283;-52
2022/03/19 01:29:24;;;;;;;10.03;3.73;;;;;;;5.92;79.53;104145.28;5063111;28;20234;-52
2022/03/19 01:31:51;;;;;;;7.93;3.60;;;;;;;5.89;80.51;104145.06;5065275;28;20242;-53
2022/03/19 01:34:17;;;;;;;8.53;3.60;;;;;;;5.80;80.16;104139.19;5064085;28;20230;-53
2022/03/19 01:36:43;;;;;;;6.07;2.97;;;;;;;5.74;80.42;104130.13;5065450;28;20938;-53
2022/03/19 01:39:11;;;;;;;11.30;3.93;;;;;;;5.68;80.73;104131.38;5063528;28;20259;-53
2022/03/19 01:41:40;;;;;;;6.37;2.77;;;;;;;5.73;80.99;104127.41;5062832;28;20239;-52
2022/03/19 01:44:07;;;;;;;5.30;3.23;;;;;;;5.70;80.87;104128.09;5063592;28;20255;-51
2022/03/19 01:46:58;;;;;;;11.10;4.10;;;;;;;5.60;80.10;104116.88;5062708;28;20261;-52
2022/03/19 01:49:24;;;;;;;9.67;4.33;;;;;;;5.55;80.81;104124.34;5063732;28;20308;-53
2022/03/19 01:51:51;;;;;;;4.87;3.30;;;;;;;5.56;81.26;104118.34;5063717;28;20263;-52
2022/03/19 01:54:24;;;;;;;11.00;3.50;;;;;;;5.50;81.36;104110.06;5063439;28;20231;-52
2022/03/19 01:56:50;;;;;;;11.27;3.90;;;;;;;5.51;81.75;104109.28;5057891;28;20277;-53
2022/03/19 01:59:17;;;;;;;5.07;2.83;;;;;;;5.44;82.07;104114.81;5062490;28;20648;-51
2022/03/19 02:01:44;;;;;;;9.07;3.83;;;;;;;5.44;82.70;104113.13;5059578;28;20259;-52
2022/03/19 02:04:11;;;;;;;5.87;3.93;;;;;;;5.43;82.80;104113.00;5055955;28;20235;-52
2022/03/19 02:06:37;;;;;;;12.37;4.23;;;;;;;5.42;83.13;104113.81;5061858;28;20238;-52
2022/03/19 02:09:04;;;;;;;10.60;3.60;;;;;;;5.39;83.01;104113.56;5060802;28;20767;-52
2022/03/19 02:11:32;;;;;;;9.67;3.67;;;;;;;5.32;83.16;104113.91;5063113;28;20238;-52
2022/03/19 02:13:58;;;;;;;8.33;3.97;;;;;;;5.28;83.91;104106.66;5063215;28;20259;-52
2022/03/19 02:16:24;;;;;;;11.13;3.87;;;;;;;5.31;84.18;104109.50;5057496;28;20243;-52
2022/03/19 02:18:51;;;;;;;9.37;3.70;;;;;;;5.28;84.46;104104.06;5064900;28;20261;-52
2022/03/19 02:21:17;;;;;;;9.67;4.10;;;;;;;5.22;84.44;104100.19;5054572;27;20244;-53
2022/03/19 02:26:42;;;;;;;7.50;4.03;;;;;;;5.13;85.49;104099.50;5057823;28;20292;-53
2022/03/19 02:29:08;;;;;;;9.10;5.37;;;;;;;5.11;85.64;104093.25;5064272;28;20223;-53
2022/03/19 02:31:35;;;;;;;8.40;4.10;;;;;;;5.16;85.82;104089.31;5063848;28;20773;-52
2022/03/19 02:34:01;;;;;;;10.93;4.13;;;;;;;5.09;85.67;104086.13;5059448;28;20675;-51
2022/03/19 02:36:28;;;;;;;10.30;4.33;;;;;;;5.00;86.30;104091.56;5073349;28;20239;-51
2022/03/19 02:38:55;;;;;;;7.33;4.07;;;;;;;4.87;86.50;104086.19;5061215;28;20316;-51
2022/03/19 02:41:22;;;;;;;11.57;4.90;;;;;;;4.81;87.03;104094.47;5062165;28;20659;-52
2022/03/19 02:43:48;;;;;;;5.53;3.73;;;;;;;4.74;87.47;104094.78;5060682;28;20251;-51
2022/03/19 02:46:15;;;;;;;5.20;3.17;;;;;;;4.65;87.69;104092.38;5058215;28;20253;-52
2022/03/19 02:48:41;;;;;;;9.57;4.40;;;;;;;4.57;88.89;104087.38;5058939;28;20255;-51
2022/03/19 02:51:08;;;;;;;11.43;4.97;;;;;;;4.59;89.91;104090.97;5058291;28;20238;-51
2022/03/19 02:53:35;;;;;;;13.60;5.97;;;;;;;4.59;91.00;104091.88;5061394;28;20242;-52
2022/03/19 02:56:03;;;;;;;12.70;5.33;;;;;;;4.64;91.35;104082.75;5064835;28;20232;-52
2022/03/19 02:58:29;;;;;;;13.17;6.10;;;;;;;4.71;91.21;104081.53;5060879;28;20257;-51
2022/03/19 03:00:55;;;;;;;15.47;6.23;;;;;;;4.69;91.31;104081.41;5063871;28;20235;-52
2022/03/19 03:03:22;;;;;;;15.67;6.27;;;;;;;4.60;91.87;104075.50;5059460;28;20258;-52
2022/03/19 03:05:48;;;;;;;12.47;6.50;;;;;;;4.57;92.74;104079.56;5059252;28;20265;-52
2022/03/19 03:08:15;;;;;;;19.23;6.30;;;;;;;4.50;93.23;104076.47;5066264;28;20338;-52
2022/03/19 03:10:41;;;;;;;16.43;6.10;;;;;;;4.44;93.89;104077.69;5061366;28;20269;-52
2022/03/19 03:13:09;;;;;;;15.13;6.63;;;;;;;4.52;94.12;104080.09;5067999;28;20312;-52
2022/03/19 03:15:35;;;;;;;12.10;6.00;;;;;;;4.53;94.23;104076.72;5066249;28;20261;-52
2022/03/19 03:18:02;;;;;;;9.57;5.50;;;;;;;4.52;93.64;104073.97;5061152;28;20723;-52
2022/03/19 03:20:28;;;;;;;10.17;5.93;;;;;;;4.49;94.15;104074.69;5068012;28;20238;-52
2022/03/19 03:22:54;;;;;;;11.37;5.47;;;;;;;4.38;94.25;104079.81;5063247;28;20270;-51
2022/03/19 03:25:21;;;;;;;14.50;6.03;;;;;;;4.37;94.79;104072.81;5061150;28;20282;-51
2022/03/19 03:27:47;;;;;;;14.27;5.47;;;;;;;4.30;94.89;104082.72;5068831;28;20246;-51
2022/03/19 03:30:18;;;;;;;6.20;4.80;;;;;;;4.21;95.00;104081.06;5066351;28;20238;-51
2022/03/19 03:32:45;;;;;;;11.33;4.97;;;;;;;4.19;95.69;104077.47;5063228;28;20249;-51
2022/03/19 03:35:11;;;;;;;13.93;5.13;;;;;;;4.18;96.09;104076.56;5064667;28;20847;-51
2022/03/19 03:37:37;;;;;;;11.03;5.77;;;;;;;4.17;95.39;104079.94;5066944;28;20261;-50
2022/03/19 03:40:05;;;;;;;9.50;5.13;;;;;;;4.18;95.39;104076.56;5065098;28;20250;-52
2022/03/19 03:42:31;;;;;;;9.00;4.90;;;;;;;4.19;95.10;104073.16;5067627;28;20254;-51
2022/03/19 03:44:58;;;;;;;11.30;5.90;;;;;;;4.24;94.90;104082.22;5065585;28;20318;-52
2022/03/19 03:47:26;;;;;;;8.37;5.40;;;;;;;4.14;94.21;104074.50;5067216;28;20245;-51
2022/03/19 03:49:53;;;;;;;13.20;5.07;;;;;;;4.11;95.25;104073.34;5062335;28;20284;-51
2022/03/19 03:52:19;;;;;;;14.03;5.60;;;;;;;4.12;95.39;104077.78;5069747;28;20266;-51
2022/03/19 03:54:46;;;;;;;8.60;4.60;;;;;;;4.08;95.34;104068.81;5063134;28;20767;-52
2022/03/19 03:57:12;;;;;;;9.17;4.90;;;;;;;4.05;95.24;104071.19;5068649;28;20250;-51
2022/03/19 03:59:38;;;;;;;8.97;4.77;;;;;;;3.99;95.37;104074.19;5066757;28;20239;-51
2022/03/19 04:02:05;;;;;;;10.87;4.23;;;;;;;4.03;95.83;104070.13;5066300;28;20306;-52
2022/03/19 04:04:33;;;;;;;14.03;5.03;;;;;;;4.06;94.73;104075.56;5064150;28;20235;-51
2022/03/19 04:06:59;;;;;;;12.37;4.97;;;;;;;4.00;94.87;104080.28;5067560;28;20263;-51
2022/03/19 04:09:25;;;;;;;11.93;5.10;;;;;;;3.98;95.12;104074.06;5059904;28;20263;-51
2022/03/19 04:11:52;;;;;;;7.67;5.20;;;;;;;3.96;95.19;104080.81;5067277;28;20227;-52
2022/03/19 04:14:20;;;;;;;10.80;5.53;;;;;;;3.88;95.08;104079.31;5065989;28;20251;-51
2022/03/19 04:16:46;;;;;;;11.13;5.20;;;;;;;3.85;95.98;104081.66;5066426;28;20235;-52
2022/03/19 04:19:12;;;;;;;12.70;4.87;;;;;;;3.88;95.30;104079.31;5067387;28;20296;-52
2022/03/19 04:21:40;;;;;;;11.17;5.10;;;;;;;3.90;95.49;104078.66;5067864;28;20246;-51
2022/03/19 04:24:06;;;;;;;7.00;5.20;;;;;;;3.83;95.11;104076.38;5066239;28;20262;-52
2022/03/19 04:26:33;;;;;;;12.63;4.40;;;;;;;3.73;95.78;104064.31;5068525;28;20319;-51
2022/03/19 04:28:59;;;;;;;8.00;5.77;;;;;;;3.76;95.84;104069.75;5066761;28;20276;-51
2022/03/19 04:31:26;;;;;;;13.30;5.30;;;;;;;3.80;95.81;104066.63;5066370;28;20610;-53
2022/03/19 04:33:52;;;;;;;13.57;5.30;;;;;;;3.80;95.48;104066.63;5071547;28;20293;-53
2022/03/19 04:36:29;;;;;;;13.03;6.60;;;;;;;3.72;95.87;104067.72;5053958;28;20798;-52
2022/03/19 04:38:57;;;;;;;8.13;4.83;;;;;;;3.74;95.68;104060.91;5068181;28;20736;-51
2022/03/19 04:41:24;;;;;;;9.97;5.27;;;;;;;3.61;95.93;104062.41;5068284;28;20235;-52
2022/03/19 04:43:50;;;;;;;10.23;5.33;;;;;;;3.55;96.63;104063.72;5067451;28;20226;-52
2022/03/19 04:46:17;;;;;;;10.13;5.43;;;;;;;3.52;97.06;104067.78;5067360;28;20591;-51
2022/03/19 04:48:45;;;;;;;14.07;5.87;;;;;;;3.47;96.94;104058.69;5067535;28;20320;-51
2022/03/19 04:51:12;;;;;;;11.07;6.70;;;;;;;3.42;96.42;104065.22;5077367;28;20243;-51
2022/03/19 04:53:39;;;;;;;13.33;5.83;;;;;;;3.40;97.24;104061.56;5070409;28;20742;-51
2022/03/19 04:56:07;;;;;;;11.13;4.93;;;;;;;3.40;97.25;104058.97;5066652;28;20327;-51
2022/03/19 04:58:33;;;;;;;7.27;4.77;;;;;;;3.36;97.28;104065.59;5065748;28;21004;-52
2022/03/19 05:01:00;;;;;;;13.17;5.03;;;;;;;3.26;97.12;104058.72;5066337;28;20269;-51
2022/03/19 05:03:26;;;;;;;14.27;5.70;;;;;;;3.25;98.16;104064.72;5064747;28;20357;-52
2022/03/19 05:05:53;;;;;;;8.87;4.93;;;;;;;3.13;97.48;104061.13;5065987;28;20921;-52
2022/03/19 05:08:19;;;;;;;11.07;4.80;;;;;;;3.08;98.24;104057.22;5066517;28;20242;-53
2022/03/19 05:13:31;;;;;;;13.53;6.27;;;;;;;3.15;98.85;104053.44;5067883;28;20245;-51
2022/03/19 05:15:57;;;;;;;9.67;5.47;;;;;;;3.08;98.85;104058.13;5065739;28;20378;-51
2022/03/19 05:18:23;;;;;;;12.80;6.20;;;;;;;3.03;98.82;104056.84;5065547;28;20922;-51
2022/03/19 05:20:50;;;;;;;13.63;6.80;;;;;;;3.00;99.32;104059.19;5056754;28;20248;-51
2022/03/19 05:23:16;;;;;;;10.37;7.47;;;;;;;3.01;99.23;104054.91;5065109;28;20280;-51
2022/03/19 05:25:43;;;;;;;9.60;5.60;;;;;;;2.91;99.61;104062.69;5066713;28;20326;-54
2022/03/19 05:28:09;;;;;;;10.47;6.30;;;;;;;2.93;100.00;104058.56;5067523;28;20270;-50
2022/03/19 05:30:38;;;;;;;10.13;6.50;;;;;;;3.00;100.00;104061.78;5066311;28;20234;-52
2022/03/19 05:33:05;;;;;;;13.87;6.83;;;;;;;2.93;100.00;104061.16;5070621;28;20772;-51
2022/03/19 05:35:32;;;;;;;10.70;5.80;;;;;;;2.89;100.00;104054.78;5065305;28;20239;-50
2022/03/19 05:37:59;;;;;;;11.77;6.33;;;;;;;2.87;99.92;104056.34;5066272;28;20317;-51
2022/03/19 05:40:25;;;;;;;12.77;6.30;;;;;;;2.84;100.00;104058.66;5065463;28;20233;-50
2022/03/19 05:42:52;;;;;;;9.87;5.60;;;;;;;2.84;100.00;104061.25;5065746;28;20231;-59
2022/03/19 05:45:20;;;;;;;8.00;5.13;;;;;;;2.80;100.00;104062.69;5065256;28;20238;-53
2022/03/19 05:47:48;;;;;;;10.43;5.37;;;;;;;2.80;100.00;104062.69;5064451;28;21022;-53
2022/03/19 05:50:15;;;;;;;8.33;5.43;;;;;;;2.81;100.00;104061.94;5064641;28;20242;-53
2022/03/19 05:52:42;;;;;;;17.27;6.33;;;;;;;2.86;100.00;104057.13;5057045;28;20239;-53
2022/03/19 05:55:09;;;;;;;8.97;4.83;;;;;;;2.90;100.00;104055.69;5065207;28;20323;-53
2022/03/19 05:57:35;;;;;;;12.00;6.13;;;;;;;2.92;100.00;104059.34;5071162;28;20254;-52
2022/03/19 06:00:03;;;;;;;12.20;4.63;;;;;;;2.91;100.00;104073.06;5066739;28;20962;-51
2022/03/19 06:02:29;;;;;;;11.17;6.70;;;;;;;2.87;100.00;104070.22;5063093;28;20648;-52
2022/03/19 06:04:57;;;;;;;6.10;4.03;;;;;;;2.89;100.00;104075.56;5065279;28;20739;-53
2022/03/19 06:07:23;;;;;;;12.00;4.90;;;;;;;2.92;100.00;104072.31;5064156;28;20247;-52
2022/03/19 06:09:49;;;;;;;13.17;4.93;;;;;;;3.00;100.00;104073.84;5064707;28;20265;-53
2022/03/19 06:12:16;;;;;;;4.57;3.73;;;;;;;3.07;100.00;104071.00;5065474;28;20298;-53
2022/03/19 06:14:42;;;;;;;15.67;4.13;;;;;;;3.15;100.00;104076.81;5066864;28;20254;-52
2022/03/19 06:17:08;;;;;;;7.40;3.77;;;;;;;3.24;99.41;104086.28;5064339;28;20265;-52
2022/03/19 06:19:35;;;;;;;9.30;4.40;;;;;;;3.34;98.82;104080.16;5065014;28;20242;-55
2022/03/19 06:22:03;;;;;;;5.83;3.93;;;;;;;3.39;98.04;104072.75;5058699;28;20254;-53
2022/03/19 06:24:29;;;;;;;9.10;4.13;;;;;;;3.47;98.01;104069.97;5057308;28;20738;-52
2022/03/19 06:26:55;;;;;;;6.10;4.23;;;;;;;3.46;97.87;104070.75;5066136;28;20312;-52
2022/03/19 06:29:22;;;;;;;10.83;4.53;;;;;;;3.52;98.16;104067.78;5064914;28;20254;-53
2022/03/19 06:31:49;;;;;;;8.77;4.10;;;;;;;3.57;98.05;104067.34;5057499;28;20622;-53
2022/03/19 06:34:15;;;;;;;9.53;4.80;;;;;;;3.61;98.12;104068.50;5060223;28;20239;-53
2022/03/19 06:39:27;;;;;;;7.00;3.83;;;;;;;3.65;97.96;104078.38;5062378;28;20921;-52
2022/03/19 06:41:53;;;;;;;7.63;3.50;;;;;;;3.63;97.93;104077.34;5068377;28;20262;-52
2022/03/19 06:44:20;;;;;;;9.80;4.30;;;;;;;3.70;97.90;104071.84;5069384;28;20299;-51
2022/03/19 06:46:46;;;;;;;8.83;3.50;;;;;;;3.83;97.85;104060.78;5067153;28;20234;-53
2022/03/19 06:49:12;;;;;;;13.50;4.17;;;;;;;3.95;96.55;104066.94;5063247;28;20239;-53
2022/03/19 06:51:40;;;;;;;11.70;3.80;;;;;;;4.07;96.51;104069.59;5066694;28;20245;-53
2022/03/19 06:54:06;;;;;;;6.73;3.03;;;;;;;4.15;96.01;104065.91;5066374;28;20236;-53
2022/03/19 06:56:34;;;;;;;7.57;3.67;;;;;;;4.14;95.39;104069.31;5062098;28;20250;-52
2022/03/19 06:59:00;;;;;;;9.13;3.10;;;;;;;4.19;95.94;104062.78;5055298;28;20263;-53
2022/03/19 07:01:26;;;;;;;7.33;2.93;;;;;;;4.38;96.43;104053.78;5063578;28;20789;-53
2022/03/19 07:03:53;;;;;;;7.43;3.63;;;;;;;4.40;95.08;104066.13;5065176;28;20251;-52
2022/03/19 07:06:19;;;;;;;12.00;3.63;;;;;;;4.46;95.21;104064.03;5063969;28;20967;-53
2022/03/19 07:08:46;;;;;;;5.67;2.97;;;;;;;4.50;95.21;104052.16;5064424;28;20643;-53
2022/03/19 07:11:12;;;;;;;6.80;2.53;;;;;;;4.55;94.13;104059.50;5063369;28;20300;-52
2022/03/19 07:13:41;;;;;;;5.70;3.13;;;;;;;4.69;94.07;104055.38;5069728;28;20272;-53
2022/03/19 07:16:08;;;;;;;9.73;2.70;;;;;;;4.89;93.75;104050.78;5065606;28;20223;-52
2022/03/19 07:18:34;;;;;;;9.80;3.60;;;;;;;4.99;92.42;104046.38;5057679;28;20231;-52
2022/03/19 07:21:01;;;;;;;6.13;2.90;;;;;;;5.00;91.62;104047.28;5064978;28;20227;-53
2022/03/19 07:23:27;;;;;;;6.60;2.83;;;;;;;5.08;91.60;104040.03;5063314;28;20258;-53
2022/03/19 07:25:54;;;;;;;6.40;3.13;;;;;;;5.14;91.67;104046.63;5063181;28;20721;-52
2022/03/19 07:28:21;;;;;;;10.43;3.40;;;;;;;5.25;91.40;104037.00;5065459;28;20238;-52
2022/03/19 07:30:49;;;;;;;7.60;3.47;;;;;;;5.36;90.21;104035.19;5061579;28;20269;-52
2022/03/19 07:33:15;;;;;;;5.40;2.60;;;;;;;5.43;89.77;104033.13;5056924;28;20678;-53
2022/03/19 07:35:42;;;;;;;8.57;3.10;;;;;;;5.49;88.97;104037.91;5065049;28;20227;-52
2022/03/19 07:38:10;;;;;;;7.60;2.90;;;;;;;5.49;89.28;104037.91;5064158;28;20243;-51
2022/03/19 07:43:22;;;;;;;5.63;2.57;;;;;;;5.86;87.92;104035.31;5062799;28;20242;-54
2022/03/19 07:45:50;;;;;;;8.10;2.83;;;;;;;5.94;87.04;104034.22;5064758;28;20231;-54
2022/03/19 07:48:16;;;;;;;8.60;3.27;;;;;;;6.03;86.19;104029.63;5054814;28;20263;-53
2022/03/19 07:50:43;;;;;;;7.27;3.00;;;;;;;6.01;85.59;104020.81;5061681;28;20804;-54
2022/03/19 07:53:10;;;;;;;4.83;2.67;;;;;;;6.16;86.59;104021.88;5063228;28;20724;-52
2022/03/19 07:55:36;;;;;;;7.30;3.17;;;;;;;6.22;84.93;104022.31;5063832;28;20254;-53
2022/03/19 07:58:02;;;;;;;8.07;3.23;;;;;;;6.42;83.97;104022.78;5064790;28;20284;-54
2022/03/19 08:00:29;;;;;;;6.20;2.00;;;;;;;6.47;83.76;104024.03;5057407;28;20273;-53
2022/03/19 08:02:56;;;;;;;3.67;3.10;;;;;;;6.73;83.04;104038.84;5066116;28;20227;-52
2022/03/19 08:05:23;;;;;;;2.97;2.03;;;;;;;7.01;82.06;104033.75;5056658;28;20269;-53
2022/03/19 08:07:51;;;;;;;4.03;1.87;;;;;;;7.18;81.31;104034.88;5069302;28;20254;-52
2022/03/19 08:10:18;;;;;;;8.93;2.70;;;;;;;7.32;80.15;104030.56;5066632;28;20742;-52
2022/03/19 08:12:45;;;;;;;3.33;2.53;;;;;;;7.32;78.33;104033.19;5061405;28;20719;-54
2022/03/19 08:15:12;;;;;;;5.50;2.20;;;;;;;7.45;79.04;104030.56;5065431;28;20255;-52
2022/03/19 08:17:41;;;;;;;3.37;2.50;;;;;;;7.42;79.04;104040.81;5067437;28;20665;-53
2022/03/19 08:20:10;;;;;;;4.93;2.70;;;;;;;7.51;77.93;104022.19;5067735;28;20231;-52
2022/03/19 08:22:36;;;;;;;8.77;2.60;;;;;;;7.79;76.98;104037.94;5068692;28;20577;-53
2022/03/19 08:25:03;;;;;;;7.13;2.57;;;;;;;7.96;75.32;104042.53;5068296;28;20711;-52
2022/03/19 08:27:29;;;;;;;3.63;2.23;;;;;;;7.99;75.38;104042.72;5065522;28;20270;-51
2022/03/19 08:29:56;;;;;;;8.10;3.30;;;;;;;8.06;74.34;104031.84;5065147;28;20258;-53
2022/03/19 08:32:22;;;;;;;7.00;2.53;;;;;;;8.23;74.25;104035.50;5065164;28;20255;-53
2022/03/19 08:34:49;;;;;;;3.87;1.70;;;;;;;8.43;73.97;104023.69;5067623;28;20278;-52
2022/03/19 08:37:16;;;;;;;9.63;2.40;;;;;;;8.59;72.96;104029.00;5062008;28;20254;-52
2022/03/19 08:42:27;;;;;;;8.60;2.97;;;;;;;8.05;73.23;104027.41;5067610;28;20246;-53
2022/03/19 08:44:56;;;;;;;5.77;1.80;;;;;;;8.26;72.83;104014.75;5066479;28;20308;-54
2022/03/19 08:47:22;;;;;;;3.90;2.00;;;;;;;8.49;72.55;104013.56;5065665;28;20326;-52
2022/03/19 08:49:48;;;;;;;11.20;2.67;;;;;;;8.24;71.58;104020.69;5067076;28;20314;-51
2022/03/19 08:52:16;;;;;;;7.37;2.27;;;;;;;8.39;72.72;104016.47;5065754;28;20247;-51
2022/03/19 08:54:42;;;;;;;6.83;2.60;;;;;;;8.29;72.92;104008.81;5074543;28;20272;-51
2022/03/19 08:57:10;;;;;;;7.53;2.43;;;;;;;8.39;72.12;104011.22;5069368;28;20255;-50
2022/03/19 08:59:36;;;;;;;5.70;2.30;;;;;;;8.37;71.86;104004.94;5063330;28;20776;-53
2022/03/19 09:02:03;;;;;;;8.27;2.80;;;;;;;8.23;71.78;103995.34;5065907;28;20235;-54
2022/03/19 09:04:29;;;;;;;4.57;2.23;;;;;;;8.33;71.68;104003.84;5063664;28;20220;-54
2022/03/19 09:06:55;;;;;;;6.50;2.70;;;;;;;8.15;71.66;103992.25;5068015;28;20745;-53
2022/03/19 09:09:23;;;;;;;5.33;2.17;;;;;;;8.59;70.86;104002.81;5054736;28;20243;-54
2022/03/19 09:11:50;;;;;;;4.00;2.13;;;;;;;8.90;70.22;104004.66;5057830;28;20715;-51
2022/03/19 09:14:16;;;;;;;4.57;2.17;;;;;;;8.99;68.19;103999.94;5065579;28;20253;-53
2022/03/19 09:16:43;;;;;;;6.47;2.27;;;;;;;9.37;67.38;104001.25;5060422;27;20223;-51
2022/03/19 09:19:09;;;;;;;5.00;2.10;;;;;;;9.59;66.15;103994.56;5052267;28;20235;-54
2022/03/19 09:21:36;;;;;;;6.67;2.20;;;;;;;9.92;64.39;103992.88;5054220;28;20317;-51
2022/03/19 09:24:03;;;;;;;7.83;3.00;;;;;;;9.92;63.82;103993.78;5054024;27;20232;-52
2022/03/19 09:26:31;;;;;;;6.17;2.27;;;;;;;10.02;63.36;103990.84;5057458;28;20232;-52
2022/03/19 09:28:58;;;;;;;3.30;1.97;;;;;;;10.32;62.85;103984.53;5055325;28;20255;-53
2022/03/19 09:31:24;;;;;;;7.60;2.77;;;;;;;10.52;61.10;103981.22;5056328;28;20796;-53
2022/03/19 09:33:50;;;;;;;3.85;2.40;;;;;;;10.65;61.24;103975.75;5053075;28;20482;-53
2022/03/19 09:36:17;;;;;;;4.57;2.05;;;;;;;10.84;60.36;103977.56;5055460;28;20463;-54
2022/03/19 09:38:44;;;;;;;5.63;2.50;;;;;;;11.14;58.63;103977.31;5061197;28;20804;-54
2022/03/19 09:41:10;;;;;;;6.50;2.27;;;;;;;11.16;57.79;103973.94;5061973;28;20243;-53
2022/03/19 09:43:38;;;;;;;8.57;2.97;;;;;;;11.11;56.44;103972.78;5059180;28;20793;-53
2022/03/19 09:46:07;;;;;;;7.30;2.83;;;;;;;11.24;56.09;103966.41;5064223;28;20227;-51
2022/03/19 09:48:33;;;;;;;7.87;1.97;;;;;;;11.42;56.78;103972.53;5059114;28;20235;-52
2022/03/19 09:51:00;;;;;;;7.43;2.22;;;;;;;11.36;56.59;103956.47;5056320;28;20239;-53
2022/03/19 09:53:28;;;;;;;5.05;1.77;;;;;;;11.47;56.11;103960.50;5057806;28;20239;-53
2022/03/19 09:55:56;;;;;;;4.03;1.90;;;;;;;11.36;55.56;103966.97;5059847;28;20285;-52
2022/03/19 09:58:22;;;;;;;5.03;2.43;;;;;;;10.91;56.47;103974.44;5060643;28;20262;-54
2022/03/19 10:00:51;;;;;;;8.10;1.87;;;;;;;10.71;55.90;103967.31;5058041;28;20246;-53
2022/03/19 10:03:22;;;;;;;3.90;1.30;;;;;;;10.74;58.28;103970.09;5068017;28;20227;-54
2022/03/19 10:08:39;;;;;;;3.33;1.60;;;;;;;10.37;57.19;103962.94;5059847;28;20822;-52
2022/03/19 10:11:07;;;;;;;6.83;2.30;;;;;;;10.20;57.96;103967.28;5061740;28;20255;-52
2022/03/19 10:13:34;;;;;;;5.50;2.13;;;;;;;10.25;57.70;103959.66;5060414;28;20231;-51
2022/03/19 10:16:02;;;;;;;6.33;1.90;;;;;;;10.28;57.27;103959.81;5059540;28;20227;-52
2022/03/19 10:18:29;;;;;;;10.23;2.50;;;;;;;9.98;58.25;103965.25;5064771;28;20276;-51
2022/03/19 10:20:56;;;;;;;9.23;2.50;;;;;;;9.81;59.16;103955.56;5060533;28;20277;-52
2022/03/19 10:23:33;;;;;;;7.70;2.60;;;;;;;9.90;59.00;103958.69;5062505;28;20228;-52
2022/03/19 10:25:59;;;;;;;5.27;2.03;;;;;;;9.86;59.15;103959.31;5063129;28;20230;-52
2022/03/19 10:28:29;;;;;;;5.87;2.30;;;;;;;9.95;59.24;103959.81;5064492;28;20262;-52
2022/03/19 10:30:55;;;;;;;7.50;2.40;;;;;;;10.07;60.27;103953.41;5054346;28;20304;-52
2022/03/19 10:33:26;;;;;;;4.83;2.30;;;;;;;10.19;59.79;103948.81;5060290;28;20863;-51
2022/03/19 10:36:05;;;;;;;5.13;2.67;;;;;;;10.38;58.11;103956.84;5062197;28;20231;-53
2022/03/19 10:38:40;;;;;;;6.20;2.33;;;;;;;10.49;58.06;103949.53;5061441;28;20300;-53
2022/03/19 10:41:07;;;;;;;8.13;2.80;;;;;;;10.60;56.65;103952.69;5063640;28;20613;-52
2022/03/19 10:43:33;;;;;;;8.93;2.57;;;;;;;10.68;56.67;103956.63;5051618;28;20314;-53
2022/03/19 10:46:03;;;;;;;5.77;2.70;;;;;;;10.78;56.07;103942.22;5052649;28;20325;-51
2022/03/19 10:48:31;;;;;;;9.33;2.63;;;;;;;10.60;56.78;103942.19;5057018;28;20709;-52
2022/03/19 10:50:58;;;;;;;8.50;2.60;;;;;;;10.51;57.31;103940.00;5057091;28;20277;-52
2022/03/19 10:53:26;;;;;;;8.80;2.97;;;;;;;10.45;57.06;103947.56;5057083;28;20242;-51
2022/03/19 10:55:53;;;;;;;7.30;2.93;;;;;;;10.00;57.28;103934.75;5063016;28;20251;-53
2022/03/19 10:58:19;;;;;;;6.70;2.90;;;;;;;9.82;57.11;103933.75;5058225;28;20807;-53
2022/03/19 11:00:48;;;;;;;9.13;3.23;;;;;;;9.61;58.42;103935.22;5056993;28;20263;-53
2022/03/19 11:03:20;;;;;;;10.73;4.30;;;;;;;9.98;58.67;103936.38;5062099;28;20258;-52
2022/03/19 11:05:49;;;;;;;8.40;3.27;;;;;;;10.24;57.86;103934.19;5061971;28;20760;-54
2022/03/19 11:08:18;;;;;;;6.97;2.83;;;;;;;10.41;56.60;103921.97;5054447;28;20232;-53
2022/03/19 11:10:45;;;;;;;6.23;3.30;;;;;;;10.45;55.19;103922.19;5059995;28;20600;-53
2022/03/19 11:13:13;;;;;;;10.97;3.33;;;;;;;10.75;54.68;103927.19;5055593;28;20718;-53
2022/03/19 11:15:40;;;;;;;29.57;6.10;;;;;;;10.95;55.43;103918.56;5055490;28;20237;-52
2022/03/19 11:18:07;;;;;;;45.37;6.73;;;;;;;11.05;55.77;103906.75;5057774;28;20265;-53
2022/03/19 11:20:34;;;;;;;7.67;2.90;;;;;;;11.18;51.79;103909.13;5058216;28;20322;-54
2022/03/19 11:23:04;;;;;;;4.37;3.00;;;;;;;10.94;52.97;103914.13;5057154;28;20745;-54
2022/03/19 11:25:35;;;;;;;5.30;2.53;;;;;;;10.85;53.09;103916.31;5054978;28;20237;-53
2022/03/19 11:28:06;;;;;;;6.10;2.80;;;;;;;10.82;54.02;103903.03;5055318;28;20328;-52
2022/03/19 11:30:35;;;;;;;6.63;2.87;;;;;;;10.80;53.48;103891.53;5049275;28;20273;-53
2022/03/19 11:33:03;;;;;;;4.00;2.03;;;;;;;10.96;52.17;103894.06;5053681;28;20231;-54
2022/03/19 11:35:30;;;;;;;3.20;2.40;;;;;;;10.97;52.03;103890.59;5061179;28;20230;-53
2022/03/19 11:38:02;;;;;;;5.20;2.73;;;;;;;11.14;52.79;103895.78;5064405;28;20285;-53
2022/03/19 11:40:35;;;;;;;5.83;2.70;;;;;;;11.31;51.00;103884.31;5066122;28;20249;-53
2022/03/19 11:43:04;;;;;;;6.17;2.87;;;;;;;11.08;51.77;103884.97;5065240;28;20257;-57
2022/03/19 11:45:55;;;;;;;5.33;2.97;;;;;;;10.90;53.48;103885.88;5072678;28;20230;-54